Time;durP1;ratioP1;P1;durP2;ratioP2;P2;SDS_P1;SDS_P2;PMS_P1;PMS_P2;Temp;Humidity;BMP_temperature;BMP_pressure;BME280_temperature;BME280_humidity;BME280_pressure;Samples;Min_cycle;Max_cycle;Signal;HPM_P1;HPM_P2
2021/06/15 00:00:45;;;;;;;3.53;2.38;;;20.90;86.90;;;;;;5054616;28;20079;-72
2021/06/15 00:03:12;;;;;;;5.57;2.60;;;20.90;87.00;;;;;;5058621;28;20057;-72
2021/06/15 00:05:39;;;;;;;3.53;2.17;;;20.90;87.10;;;;;;5073993;28;20072;-71
2021/06/15 00:08:06;;;;;;;5.03;2.60;;;20.90;87.30;;;;;;5054799;28;20048;-71
2021/06/15 00:10:32;;;;;;;5.32;2.50;;;20.80;87.30;;;;;;5062864;28;20432;-71
2021/06/15 00:12:59;;;;;;;6.03;2.92;;;20.80;87.50;;;;;;5054851;28;20138;-71
2021/06/15 00:15:27;;;;;;;6.47;2.85;;;20.80;87.60;;;;;;5052623;28;20084;-72
2021/06/15 00:17:54;;;;;;;5.93;3.10;;;20.80;87.70;;;;;;5048571;28;20132;-71
2021/06/15 00:20:22;;;;;;;7.05;2.90;;;20.70;87.80;;;;;;5052957;28;20083;-71
2021/06/15 00:22:50;;;;;;;6.10;2.60;;;20.70;88.00;;;;;;5048008;28;20076;-71
2021/06/15 00:25:17;;;;;;;6.35;2.63;;;20.60;88.10;;;;;;5065718;28;20076;-72
2021/06/15 00:27:44;;;;;;;4.45;2.50;;;20.60;88.30;;;;;;5048482;28;20102;-72
2021/06/15 00:30:12;;;;;;;5.43;2.65;;;20.50;88.30;;;;;;5051326;28;20136;-71
2021/06/15 00:32:39;;;;;;;6.80;2.60;;;20.50;89.00;;;;;;5056168;28;20062;-71
2021/06/15 00:35:06;;;;;;;5.63;2.63;;;20.60;88.50;;;;;;5055688;28;20089;-71
2021/06/15 00:37:33;;;;;;;5.13;2.80;;;20.50;88.50;;;;;;5046940;28;20501;-72
2021/06/15 00:40:00;;;;;;;5.45;2.83;;;20.50;88.60;;;;;;5059076;28;20080;-71
2021/06/15 00:42:27;;;;;;;6.10;2.58;;;20.40;88.60;;;;;;5052107;28;20049;-71
2021/06/15 00:44:54;;;;;;;4.40;2.50;;;20.40;88.80;;;;;;5053365;28;20433;-71
2021/06/15 00:51:09;;;;;;;4.63;2.50;;;20.40;88.90;;;;;;5053038;28;20407;-71
2021/06/15 01:01:23;;;;;;;4.95;2.00;;;20.10;88.60;;;;;;5054309;28;20433;-72
2021/06/15 01:03:51;;;;;;;4.35;2.25;;;20.10;88.40;;;;;;5044753;28;20048;-71
2021/06/15 01:06:35;;;;;;;5.23;2.30;;;20.00;88.50;;;;;;5049183;28;20159;-71
2021/06/15 01:09:09;;;;;;;4.60;2.15;;;20.00;88.80;;;;;;5051835;28;20171;-71
2021/06/15 01:11:39;;;;;;;4.78;2.10;;;20.00;88.80;;;;;;5051055;28;20463;-72
2021/06/15 01:14:19;;;;;;;4.32;1.90;;;20.00;88.80;;;;;;5039592;28;20124;-72
2021/06/15 01:16:54;;;;;;;5.32;2.00;;;20.00;88.90;;;;;;5035431;28;20083;-71
2021/06/15 01:19:45;;;;;;;3.15;1.65;;;19.90;88.80;;;;;;5049324;28;20068;-71
2021/06/15 01:22:34;;;;;;;3.95;1.70;;;20.00;89.00;;;;;;5056400;28;20128;-71
2021/06/15 01:25:28;;;;;;;4.53;1.70;;;19.90;89.00;;;;;;5054309;28;20055;-71
2021/06/15 01:28:01;;;;;;;4.90;1.63;;;19.90;89.00;;;;;;5049427;28;20045;-72
2021/06/15 01:30:35;;;;;;;4.05;1.75;;;19.90;89.00;;;;;;5053725;28;20051;-71
2021/06/15 01:33:04;;;;;;;3.70;1.73;;;19.90;89.00;;;;;;5052719;28;20110;-71
2021/06/15 01:35:33;;;;;;;3.28;1.60;;;19.90;89.10;;;;;;5053491;28;20044;-73
2021/06/15 01:38:04;;;;;;;3.72;1.67;;;19.90;89.20;;;;;;5045451;28;20136;-71
2021/06/15 01:40:41;;;;;;;2.97;1.60;;;19.90;89.30;;;;;;5053812;28;20543;-71
2021/06/15 01:43:23;;;;;;;3.50;1.70;;;19.90;89.30;;;;;;5051816;28;20106;-72
2021/06/15 01:45:53;;;;;;;2.08;1.40;;;19.90;89.40;;;;;;5048806;28;20053;-72
2021/06/15 01:48:47;;;;;;;5.10;2.20;;;19.90;89.50;;;;;;5055175;28;20072;-71
2021/06/15 01:51:18;;;;;;;3.38;1.75;;;19.90;89.60;;;;;;5044418;28;20049;-71
2021/06/15 01:54:09;;;;;;;4.40;1.60;;;19.90;89.60;;;;;;5057464;28;20092;-71
2021/06/15 01:56:41;;;;;;;4.72;1.50;;;19.90;90.00;;;;;;5049933;28;20396;-71
2021/06/15 01:59:10;;;;;;;4.45;1.70;;;19.90;89.90;;;;;;5054927;28;20101;-71
2021/06/15 02:01:41;;;;;;;4.13;1.55;;;19.90;90.00;;;;;;5043525;28;20069;-71
2021/06/15 02:04:09;;;;;;;4.13;1.50;;;19.80;90.00;;;;;;5060530;28;20100;-72
2021/06/15 02:06:36;;;;;;;3.53;1.27;;;19.80;90.00;;;;;;5034723;28;20079;-72
2021/06/15 02:09:06;;;;;;;3.03;1.27;;;19.80;90.00;;;;;;5060416;28;20499;-72
2021/06/15 02:11:34;;;;;;;3.38;1.58;;;19.80;90.00;;;;;;5052621;28;20111;-71
2021/06/15 02:14:03;;;;;;;2.75;1.40;;;19.80;90.10;;;;;;5054547;28;20075;-71
2021/06/15 02:16:30;;;;;;;3.20;1.33;;;19.80;90.10;;;;;;5051403;28;20076;-71
2021/06/15 02:18:58;;;;;;;2.50;1.40;;;19.80;90.20;;;;;;5056487;28;20450;-71
2021/06/15 02:21:27;;;;;;;3.95;1.52;;;19.80;90.20;;;;;;5037274;28;20041;-71
2021/06/15 02:24:00;;;;;;;4.60;2.05;;;19.80;90.30;;;;;;5057902;28;20061;-71
2021/06/15 02:26:30;;;;;;;2.97;1.40;;;19.80;90.30;;;;;;5056637;28;20076;-70
2021/06/15 02:28:58;;;;;;;4.28;1.50;;;19.80;90.30;;;;;;5055142;28;20455;-70
2021/06/15 02:31:32;;;;;;;3.58;1.50;;;19.80;90.40;;;;;;5044955;28;20477;-71
2021/06/15 02:34:04;;;;;;;3.50;1.70;;;19.80;90.50;;;;;;5052397;28;20068;-71
2021/06/15 02:36:36;;;;;;;3.50;1.40;;;19.80;90.40;;;;;;5036148;28;20081;-71
2021/06/15 02:39:15;;;;;;;4.80;1.70;;;19.70;90.50;;;;;;5050125;28;20048;-71
2021/06/15 02:41:43;;;;;;;2.80;1.20;;;19.70;90.50;;;;;;5052480;28;20064;-72
2021/06/15 02:44:18;;;;;;;3.22;1.50;;;19.70;90.50;;;;;;5059141;28;20089;-71
2021/06/15 02:46:47;;;;;;;5.07;1.60;;;19.70;90.60;;;;;;5055301;28;20056;-72
2021/06/15 02:49:18;;;;;;;3.42;1.55;;;19.70;90.60;;;;;;5064797;28;20158;-71
2021/06/15 02:51:54;;;;;;;4.07;1.50;;;19.70;90.70;;;;;;5050686;28;20164;-71
2021/06/15 02:54:26;;;;;;;2.95;1.55;;;19.70;90.80;;;;;;5055777;28;20084;-71
2021/06/15 02:56:54;;;;;;;3.83;1.60;;;19.70;90.80;;;;;;5053602;28;20091;-71
2021/06/15 02:59:21;;;;;;;2.95;1.70;;;19.60;90.80;;;;;;5056409;28;20079;-71
2021/06/15 03:01:52;;;;;;;3.90;1.50;;;19.60;90.90;;;;;;5054605;28;20068;-71
2021/06/15 03:04:19;;;;;;;3.78;1.50;;;19.60;90.90;;;;;;5051503;28;20064;-71
2021/06/15 03:06:46;;;;;;;3.92;1.52;;;19.50;91.00;;;;;;5058980;28;20124;-71
2021/06/15 03:09:14;;;;;;;3.20;1.45;;;19.50;91.20;;;;;;5058181;28;20073;-71
2021/06/15 03:11:47;;;;;;;2.30;1.50;;;19.40;91.20;;;;;;5058841;28;20529;-72
2021/06/15 03:14:21;;;;;;;2.33;1.52;;;19.40;91.30;;;;;;5050561;28;20049;-71
2021/06/15 03:16:51;;;;;;;3.88;1.75;;;19.40;91.40;;;;;;5053612;28;20077;-71
2021/06/15 03:19:27;;;;;;;4.63;1.70;;;19.40;91.50;;;;;;5056980;28;20460;-71
2021/06/15 03:22:03;;;;;;;3.47;1.50;;;19.30;91.40;;;;;;5048241;28;20076;-71
2021/06/15 03:24:32;;;;;;;3.03;1.50;;;19.30;91.40;;;;;;5030747;28;20126;-71
2021/06/15 03:27:07;;;;;;;2.70;1.30;;;19.40;91.50;;;;;;5050785;28;20072;-71
2021/06/15 03:29:37;;;;;;;3.70;1.50;;;19.40;91.50;;;;;;5063905;28;20049;-71
2021/06/15 03:32:19;;;;;;;4.28;1.50;;;19.40;91.60;;;;;;5037086;28;20081;-71
2021/06/15 03:34:50;;;;;;;3.38;1.30;;;19.40;91.60;;;;;;5043317;28;20065;-72
2021/06/15 03:37:29;;;;;;;3.42;1.40;;;19.40;91.60;;;;;;5049448;28;20068;-72
2021/06/15 03:39:58;;;;;;;3.30;1.73;;;19.40;91.80;;;;;;5043522;28;20122;-72
2021/06/15 03:42:27;;;;;;;3.33;1.63;;;19.40;91.70;;;;;;5030200;28;20072;-71
2021/06/15 03:45:03;;;;;;;3.80;1.40;;;19.30;91.60;;;;;;5043019;28;20141;-71
2021/06/15 03:47:31;;;;;;;4.47;1.40;;;19.30;91.60;;;;;;5038503;28;20083;-71
2021/06/15 03:49:59;;;;;;;5.13;1.38;;;19.30;91.60;;;;;;5040417;28;20049;-71
2021/06/15 03:52:34;;;;;;;3.33;1.15;;;19.30;91.70;;;;;;5037628;28;20513;-71
2021/06/15 03:55:05;;;;;;;3.25;1.30;;;19.30;91.70;;;;;;5049921;28;20061;-71
2021/06/15 03:57:32;;;;;;;3.13;1.38;;;19.30;91.70;;;;;;5050951;28;20505;-71
2021/06/15 04:00:02;;;;;;;2.65;1.30;;;19.30;92.00;;;;;;5053986;28;20176;-71
2021/06/15 04:02:31;;;;;;;1.75;1.20;;;19.30;91.80;;;;;;5054855;28;20467;-71
2021/06/15 04:04:59;;;;;;;3.70;1.20;;;19.30;92.00;;;;;;5055024;28;20534;-71
2021/06/15 04:07:26;;;;;;;4.45;1.25;;;19.30;91.80;;;;;;5043610;28;20377;-70
2021/06/15 04:09:54;;;;;;;3.60;1.40;;;19.30;91.80;;;;;;5067042;28;20108;-71
2021/06/15 04:12:24;;;;;;;;;;;19.30;91.80;;;;;;5055208;28;20136;-72
2021/06/15 04:14:52;;;;;;;3.72;1.40;;;19.20;91.80;;;;;;5052417;28;19968;-71
2021/06/15 04:17:24;;;;;;;3.47;1.35;;;19.20;91.70;;;;;;5035073;28;20168;-71
2021/06/15 04:19:55;;;;;;;4.40;1.30;;;19.20;91.70;;;;;;5052601;28;20562;-71
2021/06/15 04:22:28;;;;;;;4.18;1.35;;;19.20;91.70;;;;;;5050358;28;20132;-71
2021/06/15 04:24:56;;;;;;;5.40;1.50;;;19.20;91.80;;;;;;5061238;28;20138;-71
2021/06/15 04:27:25;;;;;;;4.13;1.50;;;19.10;91.70;;;;;;5033401;28;20383;-71
2021/06/15 04:29:56;;;;;;;2.65;1.20;;;19.10;91.70;;;;;;5048930;28;20068;-71
2021/06/15 04:32:49;;;;;;;5.85;1.20;;;19.00;91.70;;;;;;5047492;28;20151;-71
2021/06/15 04:35:21;;;;;;;4.20;1.05;;;19.00;91.70;;;;;;5043041;28;20503;-71
2021/06/15 04:37:51;;;;;;;2.35;1.13;;;18.90;91.60;;;;;;5041245;28;20113;-71
2021/06/15 04:40:35;;;;;;;2.58;1.33;;;18.90;91.70;;;;;;5038226;28;20045;-71
2021/06/15 04:43:10;;;;;;;3.15;0.90;;;18.90;91.60;;;;;;5044776;28;20053;-72
2021/06/15 04:45:42;;;;;;;3.20;0.70;;;18.80;91.50;;;;;;5036533;28;20068;-71
2021/06/15 04:48:20;;;;;;;2.53;0.82;;;18.80;91.50;;;;;;5051000;28;20080;-71
2021/06/15 04:50:48;;;;;;;4.32;0.80;;;18.80;91.50;;;;;;5050170;28;20536;-71
2021/06/15 04:53:17;;;;;;;2.47;0.70;;;18.80;91.40;;;;;;5036647;28;20105;-71
2021/06/15 04:55:45;;;;;;;1.52;0.80;;;18.80;91.40;;;;;;5062160;28;20045;-71
2021/06/15 04:58:12;;;;;;;;;;;18.70;91.40;;;;;;5039964;28;20476;-71
2021/06/15 05:00:39;;;;;;;3.65;0.85;;;18.70;91.30;;;;;;5052437;28;20039;-71
2021/06/15 05:03:08;;;;;;;3.77;0.70;;;18.70;91.30;;;;;;5042653;28;20103;-71
2021/06/15 05:05:35;;;;;;;2.00;0.68;;;18.60;91.30;;;;;;5054475;28;20084;-71
2021/06/15 05:08:06;;;;;;;2.92;1.08;;;18.70;91.30;;;;;;5045251;28;20488;-72
2021/06/15 05:10:37;;;;;;;4.97;0.70;;;18.70;91.30;;;;;;5053170;28;20053;-72
2021/06/15 05:13:09;;;;;;;2.92;0.65;;;18.70;91.40;;;;;;5045168;28;20552;-71
2021/06/15 05:15:42;;;;;;;4.05;0.70;;;18.70;91.30;;;;;;5056601;28;20109;-71
2021/06/15 05:18:10;;;;;;;1.48;0.75;;;18.70;91.30;;;;;;5025747;28;20045;-71
2021/06/15 05:20:37;;;;;;;3.35;0.68;;;18.70;91.30;;;;;;5031550;28;20111;-71
2021/06/15 05:23:08;;;;;;;4.03;0.80;;;18.70;91.40;;;;;;5043204;28;20037;-71
2021/06/15 05:25:35;;;;;;;5.70;0.80;;;18.70;91.40;;;;;;5045058;28;20074;-71
2021/06/15 05:28:02;;;;;;;4.20;0.70;;;18.60;91.40;;;;;;5030004;28;20057;-71
2021/06/15 05:30:29;;;;;;;5.60;1.20;;;18.60;91.40;;;;;;5046447;28;20079;-71
2021/06/15 05:32:57;;;;;;;3.78;0.85;;;18.60;91.50;;;;;;5030238;28;20080;-71
2021/06/15 05:35:24;;;;;;;4.13;0.60;;;18.60;91.40;;;;;;5053432;28;20477;-71
2021/06/15 05:37:51;;;;;;;3.85;0.60;;;18.50;91.40;;;;;;5045415;28;20057;-71
2021/06/15 05:40:18;;;;;;;3.90;0.65;;;18.50;91.40;;;;;;5045679;28;20104;-72
2021/06/15 05:42:45;;;;;;;4.22;0.70;;;18.50;91.40;;;;;;5058636;28;20056;-72
2021/06/15 05:45:13;;;;;;;1.70;0.47;;;18.40;91.30;;;;;;5046912;28;20076;-71
2021/06/15 05:47:41;;;;;;;2.43;0.53;;;18.40;91.30;;;;;;5042902;28;20041;-72
2021/06/15 05:50:08;;;;;;;3.38;0.70;;;18.40;91.40;;;;;;5031067;28;20307;-71
2021/06/15 05:52:36;;;;;;;5.53;0.83;;;18.40;91.30;;;;;;5028342;28;20128;-71
2021/06/15 05:55:04;;;;;;;3.97;0.63;;;18.40;91.30;;;;;;5035932;28;20048;-72
2021/06/15 05:57:31;;;;;;;4.25;0.60;;;18.40;91.30;;;;;;5049835;28;20084;-72
2021/06/15 05:59:58;;;;;;;3.70;0.63;;;18.50;91.50;;;;;;5037122;28;20103;-72
2021/06/15 06:02:27;;;;;;;4.22;0.60;;;18.50;91.20;;;;;;5031123;28;20049;-71
2021/06/15 06:10:11;;;;;;;4.00;0.70;;;18.50;91.10;;;;;;5035078;28;20452;-72
2021/06/15 06:12:39;;;;;;;3.40;0.50;;;18.50;91.00;;;;;;5034407;28;20089;-71
2021/06/15 06:15:07;;;;;;;0.83;0.47;;;18.50;90.90;;;;;;5038148;28;20048;-71
2021/06/15 06:17:34;;;;;;;4.35;0.57;;;18.50;90.90;;;;;;5017051;28;20049;-71
2021/06/15 06:20:10;;;;;;;4.32;0.70;;;18.50;90.80;;;;;;5034055;28;20111;-72
2021/06/15 06:22:38;;;;;;;4.00;0.80;;;18.50;90.80;;;;;;5030043;28;20132;-72
2021/06/15 06:25:13;;;;;;;1.73;0.60;;;18.60;90.70;;;;;;5034953;28;20141;-71
2021/06/15 06:27:41;;;;;;;3.90;0.60;;;18.60;90.90;;;;;;5029882;28;20452;-71
2021/06/15 06:30:09;;;;;;;3.33;0.60;;;18.60;90.70;;;;;;5033213;28;20053;-71
2021/06/15 06:32:36;;;;;;;3.10;0.73;;;18.60;90.60;;;;;;5034828;28;20210;-71
2021/06/15 06:35:04;;;;;;;7.13;0.87;;;18.60;90.60;;;;;;5033933;28;20084;-71
2021/06/15 06:37:32;;;;;;;2.92;0.52;;;18.60;90.50;;;;;;5032565;28;20090;-71
2021/06/15 06:39:58;;;;;;;3.97;0.63;;;18.60;90.40;;;;;;5046210;28;20177;-71
2021/06/15 06:42:25;;;;;;;2.95;0.45;;;18.50;90.40;;;;;;5032754;28;20049;-71
2021/06/15 06:44:52;;;;;;;4.20;0.80;;;18.50;90.40;;;;;;5031792;28;20073;-71
2021/06/15 06:47:19;;;;;;;3.13;0.50;;;18.50;90.40;;;;;;5048771;28;21671;-71
2021/06/15 06:49:46;;;;;;;3.67;0.52;;;18.40;90.40;;;;;;5031531;28;20722;-72
2021/06/15 06:52:13;;;;;;;3.47;0.63;;;18.40;90.40;;;;;;5030722;28;20046;-72
2021/06/15 06:54:40;;;;;;;3.92;0.65;;;18.40;90.40;;;;;;5034099;28;20076;-72
2021/06/15 06:57:07;;;;;;;3.85;0.70;;;18.50;90.50;;;;;;5031178;28;20143;-71
2021/06/15 06:59:33;;;;;;;4.00;0.77;;;18.50;90.50;;;;;;5029128;28;20156;-71
2021/06/15 07:02:00;;;;;;;3.35;0.60;;;18.50;90.50;;;;;;5031519;28;20083;-71
2021/06/15 07:04:27;;;;;;;5.03;0.70;;;18.60;90.50;;;;;;5034204;28;20123;-71
2021/06/15 07:06:54;;;;;;;3.03;0.60;;;18.60;90.50;;;;;;5033953;28;20095;-72
2021/06/15 07:09:21;;;;;;;4.05;0.80;;;18.70;90.50;;;;;;5031295;28;20570;-71
2021/06/15 07:11:47;;;;;;;3.97;0.73;;;18.70;90.50;;;;;;5033496;28;20530;-72
2021/06/15 07:14:14;;;;;;;3.92;0.75;;;18.80;90.50;;;;;;5034404;28;20505;-71
2021/06/15 07:16:41;;;;;;;4.50;0.68;;;18.80;90.50;;;;;;5030343;28;20076;-71
2021/06/15 07:19:12;;;;;;;3.95;0.63;;;18.90;90.50;;;;;;5033814;28;20041;-71
2021/06/15 07:21:39;;;;;;;4.18;0.82;;;19.00;90.60;;;;;;5014619;28;20232;-71
2021/06/15 07:24:06;;;;;;;3.03;0.60;;;19.10;90.60;;;;;;5032378;28;20068;-71
2021/06/15 07:26:33;;;;;;;8.15;0.60;;;19.20;90.70;;;;;;5029173;28;20072;-71
2021/06/15 07:29:01;;;;;;;1.48;0.50;;;19.30;90.70;;;;;;5030531;28;20136;-72
2021/06/15 07:31:29;;;;;;;4.78;0.68;;;19.40;90.60;;;;;;5027514;28;20432;-71
2021/06/15 07:33:56;;;;;;;4.85;0.73;;;19.50;90.60;;;;;;5013827;28;20424;-71
2021/06/15 07:36:23;;;;;;;2.65;0.70;;;19.60;90.40;;;;;;5035105;28;20087;-71
2021/06/15 07:38:51;;;;;;;3.30;0.68;;;19.60;90.30;;;;;;5015217;28;20048;-71
2021/06/15 07:41:18;;;;;;;;;;;19.60;90.20;;;;;;5029818;28;20151;-71
2021/06/15 07:43:44;;;;;;;2.55;0.40;;;19.70;90.10;;;;;;5012471;28;19964;-72
2021/06/15 07:46:13;;;;;;;4.05;0.60;;;19.70;90.20;;;;;;5012202;28;20143;-71
2021/06/15 07:48:40;;;;;;;4.00;0.63;;;19.70;90.20;;;;;;5021525;28;20152;-71
2021/06/15 07:51:07;;;;;;;4.10;0.68;;;19.80;90.20;;;;;;5030490;28;20157;-71
2021/06/15 07:53:34;;;;;;;2.25;0.60;;;19.90;90.20;;;;;;5034736;28;20149;-71
2021/06/15 07:56:00;;;;;;;3.78;0.85;;;20.10;90.30;;;;;;5031695;28;20540;-71
2021/06/15 07:58:27;;;;;;;4.00;0.90;;;20.20;90.30;;;;;;5034006;28;20168;-72
2021/06/15 08:00:54;;;;;;;4.95;0.70;;;20.40;90.20;;;;;;5027648;28;20060;-71
2021/06/15 08:03:21;;;;;;;3.20;0.70;;;20.60;90.20;;;;;;5034015;28;20526;-71
2021/06/15 08:05:47;;;;;;;3.85;0.70;;;20.60;90.00;;;;;;5014583;28;20083;-72
2021/06/15 08:08:14;;;;;;;3.90;0.60;;;20.70;90.00;;;;;;5032642;28;20092;-72
2021/06/15 08:10:41;;;;;;;5.95;0.63;;;20.80;90.00;;;;;;5017850;28;20492;-71
2021/06/15 08:13:08;;;;;;;4.97;1.02;;;20.80;90.00;;;;;;5032184;28;20064;-72
2021/06/15 08:15:35;;;;;;;5.43;0.70;;;20.90;90.00;;;;;;5031687;28;21160;-71
2021/06/15 08:18:01;;;;;;;6.25;0.68;;;21.00;90.00;;;;;;5032184;28;20463;-71
2021/06/15 08:20:28;;;;;;;5.03;0.60;;;21.10;90.00;;;;;;5014896;28;20531;-73
2021/06/15 08:22:55;;;;;;;5.70;0.80;;;21.10;89.80;;;;;;5032354;28;20556;-71
2021/06/15 08:25:22;;;;;;;2.55;0.80;;;21.10;89.70;;;;;;5035367;28;20045;-71
2021/06/15 08:27:49;;;;;;;4.78;0.77;;;21.20;89.70;;;;;;5031106;28;20103;-71
2021/06/15 08:30:16;;;;;;;3.50;0.77;;;21.20;89.30;;;;;;5031239;28;20104;-71
2021/06/15 08:32:43;;;;;;;5.50;0.80;;;21.20;89.20;;;;;;5029836;28;20111;-72
2021/06/15 08:35:10;;;;;;;6.47;0.90;;;21.20;88.80;;;;;;5032390;28;20080;-71
2021/06/15 08:37:40;;;;;;;3.85;0.60;;;21.20;89.10;;;;;;5031132;28;20129;-71
2021/06/15 08:40:07;;;;;;;4.63;0.77;;;21.30;89.20;;;;;;5033714;28;20535;-73
2021/06/15 08:42:37;;;;;;;5.28;0.95;;;21.30;89.20;;;;;;5048042;28;20203;-71
2021/06/15 08:45:06;;;;;;;4.32;0.80;;;21.30;89.00;;;;;;5029266;28;20081;-71
2021/06/15 08:47:40;;;;;;;2.58;0.85;;;21.40;89.10;;;;;;5030914;28;20072;-71
2021/06/15 08:50:09;;;;;;;6.82;0.85;;;21.40;89.20;;;;;;5031115;28;20087;-71
2021/06/15 08:52:36;;;;;;;5.22;0.77;;;21.40;89.10;;;;;;5030279;28;20045;-71
2021/06/15 08:55:07;;;;;;;3.67;0.68;;;21.50;88.90;;;;;;5026308;28;20068;-72
2021/06/15 08:57:36;;;;;;;2.35;0.80;;;21.50;88.90;;;;;;5025951;28;20143;-71
2021/06/15 09:00:10;;;;;;;6.50;0.80;;;21.50;88.90;;;;;;5026726;28;20140;-71
2021/06/15 09:02:45;;;;;;;4.10;0.73;;;21.60;89.00;;;;;;5025723;28;20140;-71
2021/06/15 09:05:17;;;;;;;6.18;1.17;;;21.60;88.60;;;;;;5024970;28;20493;-71
2021/06/15 09:08:07;;;;;;;4.75;0.95;;;21.60;88.50;;;;;;5029568;28;20122;-70
2021/06/15 09:10:39;;;;;;;3.65;0.80;;;21.60;88.30;;;;;;5028364;28;20081;-71
2021/06/15 09:13:26;;;;;;;4.53;0.88;;;21.60;88.40;;;;;;5030697;28;20077;-71
2021/06/15 09:15:53;;;;;;;3.10;0.80;;;21.60;88.40;;;;;;5048061;28;20207;-71
2021/06/15 09:18:28;;;;;;;3.90;0.95;;;21.70;88.50;;;;;;5035115;28;20042;-71
2021/06/15 09:20:59;;;;;;;4.57;0.77;;;21.70;88.20;;;;;;5034226;28;20152;-71
2021/06/15 09:23:34;;;;;;;3.92;0.82;;;21.80;88.30;;;;;;5033112;28;20131;-71
2021/06/15 09:26:01;;;;;;;3.33;0.63;;;21.80;88.00;;;;;;5030454;28;20091;-71
2021/06/15 09:28:28;;;;;;;3.97;0.85;;;21.80;87.90;;;;;;5033321;28;20140;-71
2021/06/15 09:30:59;;;;;;;3.10;0.82;;;21.70;87.30;;;;;;5028904;28;20146;-70
2021/06/15 09:33:42;;;;;;;3.72;0.88;;;21.70;87.40;;;;;;5033267;28;20366;-71
2021/06/15 09:36:29;;;;;;;3.55;0.70;;;21.60;87.00;;;;;;5031508;28;20135;-72
2021/06/15 09:38:58;;;;;;;4.45;0.85;;;21.50;87.10;;;;;;5034941;28;20064;-71
2021/06/15 09:41:48;;;;;;;4.80;1.05;;;21.60;87.40;;;;;;5031395;28;20119;-72
2021/06/15 09:44:30;;;;;;;4.00;0.70;;;21.60;87.50;;;;;;5051523;28;20048;-71
2021/06/15 09:47:02;;;;;;;4.88;0.98;;;21.60;87.60;;;;;;5018348;28;20049;-71
2021/06/15 09:49:38;;;;;;;2.38;0.70;;;21.70;87.70;;;;;;5034011;28;20136;-70
2021/06/15 09:52:25;;;;;;;6.13;1.42;;;21.60;86.90;;;;;;5030095;28;20049;-71
2021/06/15 09:54:56;;;;;;;6.60;0.90;;;21.60;87.10;;;;;;5024582;28;20081;-71
2021/06/15 09:57:28;;;;;;;3.03;0.77;;;21.60;87.10;;;;;;5031081;28;20100;-71
2021/06/15 10:00:08;;;;;;;3.55;0.82;;;21.60;87.50;;;;;;5029116;28;20068;-70
2021/06/15 10:02:57;;;;;;;3.92;0.77;;;21.70;87.80;;;;;;5032342;28;20850;-71
2021/06/15 10:05:28;;;;;;;3.97;0.93;;;21.70;87.30;;;;;;5030665;28;20045;-71
2021/06/15 10:07:58;;;;;;;5.47;0.90;;;21.80;87.50;;;;;;5015352;28;20508;-71
2021/06/15 10:10:27;;;;;;;4.57;0.93;;;21.90;87.50;;;;;;5027970;28;20049;-71
2021/06/15 10:12:55;;;;;;;6.50;0.90;;;21.90;87.40;;;;;;5031381;28;20073;-70
2021/06/15 10:15:22;;;;;;;4.72;0.73;;;22.00;87.40;;;;;;5029223;28;20755;-70
2021/06/15 10:17:49;;;;;;;7.22;1.00;;;22.10;87.50;;;;;;5034617;28;20135;-71
2021/06/15 10:20:19;;;;;;;3.42;0.98;;;22.10;87.40;;;;;;5032572;28;20466;-70
2021/06/15 10:22:47;;;;;;;11.77;1.20;;;22.20;87.20;;;;;;5012148;28;20073;-70
2021/06/15 10:25:15;;;;;;;3.13;0.70;;;22.20;87.10;;;;;;5031524;28;20076;-70
2021/06/15 10:27:43;;;;;;;3.10;0.73;;;22.20;87.30;;;;;;5031708;28;20498;-70
2021/06/15 10:30:12;;;;;;;3.42;0.85;;;22.30;87.20;;;;;;5031400;28;20077;-70
2021/06/15 10:32:58;;;;;;;2.67;0.75;;;22.30;87.00;;;;;;5031202;28;20466;-70
2021/06/15 10:35:41;;;;;;;3.50;0.80;;;22.40;87.60;;;;;;5030996;28;20139;-70
2021/06/15 10:38:09;;;;;;;6.88;0.82;;;22.50;87.10;;;;;;5028198;28;20072;-71
2021/06/15 10:40:39;;;;;;;6.50;1.20;;;22.50;87.10;;;;;;5029108;28;20073;-70
2021/06/15 10:43:22;;;;;;;3.10;0.70;;;22.60;86.70;;;;;;5028632;28;20049;-71
2021/06/15 10:46:12;;;;;;;3.28;0.80;;;22.60;86.30;;;;;;5029052;28;20099;-71
2021/06/15 10:49:02;;;;;;;4.18;0.80;;;22.60;85.60;;;;;;5030497;28;20145;-71
2021/06/15 10:51:32;;;;;;;3.70;0.75;;;22.50;85.50;;;;;;5029942;28;20164;-70
2021/06/15 10:54:03;;;;;;;2.35;0.80;;;22.50;85.30;;;;;;5030057;28;20053;-70
2021/06/15 10:56:33;;;;;;;4.72;1.00;;;22.40;85.30;;;;;;5030617;28;20077;-71
2021/06/15 10:59:09;;;;;;;3.75;0.98;;;22.40;85.20;;;;;;5027435;28;20079;-71
2021/06/15 11:01:41;;;;;;;4.28;1.00;;;22.40;85.30;;;;;;5029082;28;20139;-71
2021/06/15 11:04:13;;;;;;;5.38;0.93;;;22.40;85.10;;;;;;5032925;28;20528;-70
2021/06/15 11:06:49;;;;;;;3.28;0.80;;;22.40;85.00;;;;;;5033070;28;20076;-71
2021/06/15 11:09:23;;;;;;;4.05;0.90;;;22.50;85.70;;;;;;5032821;28;20351;-71
2021/06/15 11:12:17;;;;;;;3.67;0.80;;;22.50;85.00;;;;;;5032868;28;20140;-71
2021/06/15 11:15:06;;;;;;;2.53;0.80;;;22.60;84.90;;;;;;5030059;28;20102;-71
2021/06/15 11:17:48;;;;;;;3.35;0.82;;;22.70;84.80;;;;;;5026921;28;20077;-71
2021/06/15 11:20:29;;;;;;;3.40;0.90;;;22.70;85.00;;;;;;5043969;28;20087;-71
2021/06/15 11:23:16;;;;;;;3.72;0.90;;;22.70;84.80;;;;;;5030963;28;20104;-71
2021/06/15 11:26:03;;;;;;;3.50;1.00;;;22.80;84.80;;;;;;5027755;28;20139;-71
2021/06/15 11:28:40;;;;;;;5.00;0.90;;;22.90;85.00;;;;;;5026139;28;20153;-71
2021/06/15 11:31:19;;;;;;;10.07;1.42;;;22.90;85.10;;;;;;5026247;28;20156;-71
2021/06/15 11:33:59;;;;;;;5.65;1.10;;;23.00;84.70;;;;;;5013710;28;20412;-71
2021/06/15 11:36:38;;;;;;;7.38;1.00;;;23.00;84.60;;;;;;5028363;28;20128;-71
2021/06/15 11:39:30;;;;;;;4.00;0.90;;;23.00;84.50;;;;;;5029759;28;20071;-71
2021/06/15 11:42:26;;;;;;;7.13;1.10;;;23.00;83.70;;;;;;5007403;28;20080;-71
2021/06/15 11:44:59;;;;;;;4.10;1.20;;;23.00;83.90;;;;;;5022090;28;20138;-71
2021/06/15 11:47:32;;;;;;;7.00;1.10;;;23.00;84.10;;;;;;5026710;28;20393;-71
2021/06/15 11:50:06;;;;;;;4.90;0.90;;;23.00;83.90;;;;;;5029287;28;20072;-71
2021/06/15 11:52:39;;;;;;;4.05;0.93;;;23.00;83.30;;;;;;5020758;28;20046;-71
2021/06/15 11:55:07;;;;;;;4.13;1.25;;;23.00;83.40;;;;;;5029022;28;20136;-71
2021/06/15 11:57:35;;;;;;;4.07;0.80;;;23.00;83.30;;;;;;5028680;28;20045;-71
2021/06/15 12:00:05;;;;;;;4.18;0.95;;;23.00;83.20;;;;;;5030038;28;20081;-70
2021/06/15 12:02:31;;;;;;;5.07;1.05;;;23.00;82.60;;;;;;5031173;28;20131;-71
2021/06/15 12:05:10;;;;;;;3.25;0.70;;;23.00;82.20;;;;;;5031227;28;20415;-71
2021/06/15 12:07:42;;;;;;;4.97;1.20;;;23.00;82.40;;;;;;5043152;28;20045;-71
2021/06/15 12:10:14;;;;;;;3.35;0.80;;;23.00;81.90;;;;;;5027978;28;20084;-71
2021/06/15 12:13:04;;;;;;;2.90;0.75;;;22.90;82.40;;;;;;5026350;28;20088;-71
2021/06/15 12:15:45;;;;;;;3.83;0.82;;;23.00;82.70;;;;;;5027834;28;20115;-71
2021/06/15 12:18:23;;;;;;;4.03;0.80;;;23.00;82.30;;;;;;5027393;28;20100;-71
2021/06/15 12:20:59;;;;;;;3.47;0.90;;;23.00;82.70;;;;;;5045228;28;20147;-71
2021/06/15 12:38:49;;;;;;;8.25;1.00;;;23.40;82.60;;;;;;5042429;28;20040;-72
2021/06/15 12:41:22;;;;;;;5.53;0.88;;;23.50;82.80;;;;;;5024316;28;20084;-72
2021/06/15 12:43:52;;;;;;;6.07;1.00;;;23.50;82.40;;;;;;5027959;28;20076;-72
2021/06/15 12:46:36;;;;;;;3.15;0.90;;;23.50;82.30;;;;;;5030091;28;20107;-72
2021/06/15 12:49:06;;;;;;;5.00;1.05;;;23.60;82.00;;;;;;5030163;28;20085;-72
2021/06/15 12:51:46;;;;;;;6.15;1.00;;;23.70;82.30;;;;;;5011007;28;20069;-72
2021/06/15 12:54:23;;;;;;;4.38;1.05;;;23.70;82.00;;;;;;5025974;28;20140;-72
2021/06/15 12:56:55;;;;;;;3.67;0.90;;;23.70;81.60;;;;;;5026077;28;20404;-72
2021/06/15 12:59:22;;;;;;;2.92;0.82;;;23.70;81.70;;;;;;5026027;28;20548;-72
2021/06/15 13:01:49;;;;;;;5.07;0.90;;;23.70;81.10;;;;;;5042178;28;20130;-72
2021/06/15 13:04:28;;;;;;;3.53;1.10;;;23.70;81.20;;;;;;5029983;28;20163;-71
2021/06/15 13:06:58;;;;;;;4.22;0.88;;;23.70;81.20;;;;;;5036665;28;20049;-72
2021/06/15 13:09:27;;;;;;;4.70;1.00;;;23.70;81.60;;;;;;5035338;28;20053;-72
2021/06/15 13:12:01;;;;;;;6.53;1.08;;;23.80;81.70;;;;;;5043607;28;20466;-71
2021/06/15 13:14:34;;;;;;;3.70;0.80;;;23.90;81.40;;;;;;5010849;28;20077;-71
2021/06/15 13:17:25;;;;;;;6.75;1.35;;;23.90;81.40;;;;;;5024543;28;20180;-72
2021/06/15 13:20:12;;;;;;;4.45;0.90;;;23.90;81.20;;;;;;5038580;28;20056;-71
2021/06/15 13:22:41;;;;;;;5.75;1.25;;;24.00;81.30;;;;;;5027497;28;20040;-72
2021/06/15 13:25:10;;;;;;;3.10;1.05;;;24.00;81.20;;;;;;5027439;28;20164;-71
2021/06/15 13:27:39;;;;;;;7.78;1.08;;;24.00;81.10;;;;;;5011001;28;20084;-71
2021/06/15 13:30:20;;;;;;;4.43;0.82;;;24.00;80.90;;;;;;5041327;28;20148;-70
2021/06/15 13:33:19;;;;;;;4.95;1.05;;;24.00;80.80;;;;;;5026447;28;20467;-72
2021/06/15 13:35:51;;;;;;;2.90;1.17;;;24.00;80.50;;;;;;5014658;28;20060;-71
2021/06/15 13:38:23;;;;;;;4.25;0.85;;;24.00;79.10;;;;;;5043077;28;20080;-71
2021/06/15 13:40:54;;;;;;;6.65;1.13;;;23.90;79.90;;;;;;5025037;28;20095;-71
2021/06/15 13:43:28;;;;;;;3.65;0.93;;;23.90;79.90;;;;;;5026762;28;20508;-71